createdAt,value
2019-03-05T00:03:41.610Z,81.97
2019-03-05T00:08:54.252Z,81.20
2019-03-05T00:14:06.244Z,80.81
2019-03-05T00:19:35.326Z,80.33
2019-03-05T00:25:10.124Z,81.01
2019-03-05T00:30:43.715Z,81.34
2019-03-05T00:36:17.632Z,81.85
2019-03-05T00:41:44.075Z,82.26
2019-03-05T00:47:15.912Z,82.79
2019-03-05T00:53:01.641Z,82.88
2019-03-05T00:58:36.240Z,82.96
2019-03-05T01:04:42.533Z,83.25
2019-03-05T01:09:51.901Z,83.37
2019-03-05T01:15:01.125Z,82.88
2019-03-05T01:20:11.460Z,82.04
2019-03-05T01:25:45.306Z,82.06
2019-03-05T01:31:19.491Z,81.08
2019-03-05T01:36:32.873Z,80.61
2019-03-05T01:41:42.413Z,80.25
2019-03-05T01:46:49.762Z,79.59
2019-03-05T01:51:59.631Z,78.35
2019-03-05T01:57:09.124Z,77.99
2019-03-05T02:02:21.781Z,77.12
2019-03-05T02:07:35.459Z,77.33
2019-03-05T02:12:50.830Z,76.90
2019-03-05T02:18:02.598Z,76.33
2019-03-05T02:23:31.209Z,75.89
2019-03-05T02:29:05.157Z,76.58
2019-03-05T02:34:52.871Z,77.23
2019-03-05T02:40:23.627Z,77.58
2019-03-05T02:45:44.809Z,77.92
2019-03-05T02:51:23.328Z,77.87
2019-03-05T02:56:43.042Z,77.87
2019-03-05T03:02:09.331Z,78.86
2019-03-05T03:07:19.212Z,79.28
2019-03-05T03:12:27.748Z,80.15
2019-03-05T03:17:41.545Z,80.82
2019-03-05T03:22:57.808Z,81.53
2019-03-05T03:28:06.349Z,82.03
2019-03-05T03:33:16.274Z,82.82
2019-03-05T03:38:31.088Z,83.35
2019-03-05T03:43:44.325Z,83.95
2019-03-05T03:48:56.770Z,84.15
2019-03-05T03:54:05.398Z,84.23
2019-03-05T03:59:35.590Z,84.63
2019-03-05T04:04:44.253Z,85.04
2019-03-05T04:09:55.053Z,85.04
2019-03-05T04:15:03.491Z,86.38
2019-03-05T04:20:15.471Z,86.38
2019-03-05T04:25:25.247Z,86.55
2019-03-05T04:30:35.097Z,88.42
2019-03-05T04:35:47.818Z,89.19
2019-03-05T04:40:57.923Z,90.61
2019-03-05T04:46:31.139Z,90.82
2019-03-05T04:51:46.895Z,90.35
2019-03-05T04:56:57.847Z,90.51
2019-03-05T05:02:06.702Z,89.78
2019-03-05T05:07:19.995Z,90.08
2019-03-05T05:12:31.655Z,90.23
2019-03-05T05:17:47.988Z,90.42
2019-03-05T05:22:55.971Z,90.42
2019-03-05T05:28:04.170Z,90.16
2019-03-05T05:33:14.094Z,89.66
2019-03-05T05:38:26.344Z,89.49
2019-03-05T05:43:34.247Z,89.26
2019-03-05T05:54:16.868Z,89.36
2019-03-05T05:59:26.753Z,89.25
2019-03-05T06:04:39.427Z,89.66
2019-03-05T06:09:49.403Z,89.54
2019-03-05T06:20:26.979Z,89.32
2019-03-05T06:25:39.565Z,88.94
2019-03-05T06:30:49.511Z,88.54
2019-03-05T06:36:03.153Z,88.13
2019-03-05T06:41:13.161Z,87.66
2019-03-05T06:46:25.788Z,87.44
2019-03-05T06:51:40.201Z,87.29
2019-03-05T06:56:52.237Z,87.96
2019-03-05T07:01:58.571Z,88.61
2019-03-05T07:07:07.494Z,88.93
2019-03-05T07:12:52.075Z,88.85
2019-03-05T07:18:25.381Z,88.95
2019-03-05T07:24:05.794Z,88.42
2019-03-05T07:29:18.631Z,88.28
2019-03-05T07:34:31.140Z,87.79
2019-03-05T07:39:41.893Z,87.71
2019-03-05T07:44:53.237Z,87.82
2019-03-05T07:50:06.689Z,87.47
2019-03-05T07:55:20.487Z,87.25
2019-03-05T08:00:33.058Z,86.96
2019-03-05T08:05:50.870Z,86.42
2019-03-05T08:11:03.652Z,86.47
2019-03-05T08:16:19.223Z,84.60
2019-03-05T08:21:30.786Z,84.97
2019-03-05T08:26:45.287Z,86.02
2019-03-05T08:31:56.029Z,86.18
2019-03-05T08:37:05.999Z,86.63
2019-03-05T08:42:17.739Z,86.84
2019-03-05T08:47:26.739Z,87.14
2019-03-05T08:52:35.804Z,84.87
2019-03-05T08:57:43.928Z,84.44
2019-03-05T09:02:57.425Z,84.71
2019-03-05T09:08:09.187Z,84.72
2019-03-05T09:13:32.426Z,83.03
2019-03-05T09:18:30.334Z,83.26
2019-03-05T09:23:37.845Z,83.34
2019-03-05T09:28:52.461Z,82.07
2019-03-05T09:34:04.997Z,81.47
2019-03-05T09:39:15.875Z,80.64
2019-03-05T09:44:28.506Z,80.24
2019-03-05T09:49:36.365Z,79.80
2019-03-05T09:54:48.230Z,80.08
2019-03-05T10:00:02.966Z,79.20
2019-03-05T10:05:16.131Z,77.07
2019-03-05T10:10:29.464Z,74.00
2019-03-05T10:15:43.244Z,71.70
2019-03-05T10:20:55.089Z,73.44
2019-03-05T10:26:06.730Z,71.46
2019-03-05T10:31:18.898Z,73.77
2019-03-05T10:36:29.881Z,72.71
2019-03-05T10:41:39.064Z,67.87
2019-03-05T10:46:47.417Z,63.00
2019-03-05T10:51:55.748Z,61.89
2019-03-05T10:57:06.550Z,59.61
2019-03-05T11:02:15.777Z,64.33
2019-03-05T11:07:26.760Z,66.79
2019-03-05T11:12:37.681Z,65.90
2019-03-05T11:17:47.097Z,65.50
2019-03-05T11:22:57.848Z,65.55
2019-03-05T11:28:09.722Z,64.67
2019-03-05T11:33:23.285Z,63.07
2019-03-05T11:38:38.855Z,61.85
2019-03-05T11:43:51.532Z,60.78
2019-03-05T11:49:05.803Z,57.58
2019-03-05T11:54:13.850Z,54.10
2019-03-05T11:59:23.053Z,48.67
2019-03-05T12:04:35.623Z,49.75
2019-03-05T12:09:48.241Z,46.89
2019-03-05T12:14:58.949Z,49.74
2019-03-05T12:20:10.187Z,49.34
2019-03-05T12:25:24.068Z,46.91
2019-03-05T12:30:35.828Z,45.90
2019-03-05T12:35:43.705Z,52.20
2019-03-05T12:40:57.277Z,52.02
2019-03-05T12:46:08.917Z,50.59
2019-03-05T12:51:18.755Z,51.71
2019-03-05T12:56:28.468Z,50.22
2019-03-05T13:01:39.606Z,50.10
2019-03-05T13:06:51.050Z,56.24
2019-03-05T13:11:58.331Z,63.63
2019-03-05T13:17:10.946Z,59.19
2019-03-05T13:22:28.906Z,60.65
2019-03-05T13:27:37.478Z,57.50
2019-03-05T13:32:47.312Z,59.02
2019-03-05T13:38:03.127Z,56.96
2019-03-05T13:43:11.246Z,57.53
2019-03-05T13:48:34.523Z,56.01
2019-03-05T13:54:21.379Z,56.54
2019-03-05T13:59:55.528Z,57.75
2019-03-05T14:05:13.733Z,59.03
2019-03-05T14:10:22.693Z,59.60
2019-03-05T14:15:37.025Z,57.85
2019-03-05T14:20:47.079Z,55.70
2019-03-05T14:25:56.212Z,58.44
2019-03-05T14:31:09.003Z,58.87
2019-03-05T14:36:19.085Z,58.01
2019-03-05T14:41:25.183Z,57.93
2019-03-05T14:46:39.725Z,57.00
2019-03-05T14:51:50.958Z,54.52
2019-03-05T14:57:00.128Z,49.41
2019-03-05T15:02:11.338Z,48.45
2019-03-05T15:07:21.385Z,50.11
2019-03-05T15:12:30.309Z,51.03
2019-03-05T15:17:41.463Z,53.56
2019-03-05T15:22:48.558Z,56.32
2019-03-05T15:27:58.950Z,57.12
2019-03-05T15:33:07.951Z,55.34
2019-03-05T15:38:16.941Z,54.39
2019-03-05T15:43:28.709Z,54.70
2019-03-05T15:48:37.151Z,55.48
2019-03-05T15:53:49.814Z,55.74
2019-03-05T15:58:59.102Z,57.02
2019-03-05T16:04:10.220Z,55.34
2019-03-05T16:09:20.235Z,53.25
2019-03-05T16:14:32.887Z,54.10
2019-03-05T16:19:41.757Z,55.30
2019-03-05T16:25:13.828Z,56.11
2019-03-05T16:30:39.728Z,56.80
2019-03-05T16:36:05.480Z,58.24
2019-03-05T16:41:41.832Z,59.46
2019-03-05T16:46:58.153Z,59.73
2019-03-05T16:52:22.305Z,60.50
2019-03-05T16:57:49.465Z,61.19
2019-03-05T17:03:07.591Z,61.90
2019-03-05T17:08:42.485Z,62.51
2019-03-05T17:13:53.225Z,63.01
2019-03-05T17:19:00.550Z,63.55
2019-03-05T17:24:10.565Z,63.84
2019-03-05T17:29:21.656Z,63.98
2019-03-05T17:35:52.643Z,63.92
2019-03-05T17:41:04.580Z,64.54
2019-03-05T17:46:14.987Z,64.87
2019-03-05T17:51:25.299Z,65.04
2019-03-05T17:56:34.275Z,65.55
2019-03-05T18:01:46.217Z,65.56
2019-03-05T18:06:59.361Z,65.75
2019-03-05T18:12:07.007Z,65.76
2019-03-05T18:17:19.625Z,66.10
2019-03-05T18:22:32.359Z,66.47
2019-03-05T18:27:43.203Z,66.80
2019-03-05T18:32:56.003Z,67.09
2019-03-05T18:38:05.094Z,67.22
2019-03-05T18:43:14.330Z,67.33
2019-03-05T18:48:25.988Z,67.93
2019-03-05T18:53:40.274Z,67.79
2019-03-05T18:58:52.887Z,68.28
2019-03-05T19:04:03.781Z,68.51
2019-03-05T19:09:18.234Z,68.40
2019-03-05T19:14:31.758Z,68.89
2019-03-05T19:19:40.677Z,69.21
2019-03-05T19:24:49.522Z,69.56
2019-03-05T19:30:02.245Z,69.89
2019-03-05T19:35:13.318Z,70.17
2019-03-05T19:40:24.131Z,70.48
2019-03-05T19:45:39.598Z,70.57
2019-03-05T19:50:50.397Z,71.04
2019-03-05T19:55:59.860Z,71.58
2019-03-05T20:01:11.718Z,72.29
2019-03-05T20:06:19.005Z,73.00
2019-03-05T20:11:31.688Z,73.86
2019-03-05T20:17:00.107Z,74.19
2019-03-05T20:22:11.243Z,75.35
2019-03-05T20:27:22.278Z,75.39
2019-03-05T20:32:33.159Z,76.32
2019-03-05T20:37:45.967Z,76.61
2019-03-05T20:42:56.707Z,76.68
2019-03-05T20:48:09.065Z,77.21
2019-03-05T20:53:18.063Z,77.36
2019-03-05T20:58:27.399Z,77.73
2019-03-05T21:03:36.466Z,78.27
2019-03-05T21:08:47.279Z,78.41
2019-03-05T21:13:54.649Z,79.08
2019-03-05T21:19:02.594Z,79.22
2019-03-05T21:24:15.591Z,79.82
2019-03-05T21:29:25.411Z,80.25
2019-03-05T21:34:36.330Z,80.27
2019-03-05T21:39:45.309Z,80.15
2019-03-05T21:44:56.073Z,80.19
2019-03-05T21:50:03.416Z,80.42
2019-03-05T21:55:14.415Z,80.61
2019-03-05T22:00:27.812Z,80.56
2019-03-05T22:05:40.462Z,80.58
2019-03-05T22:10:56.099Z,80.74
2019-03-05T22:16:06.803Z,81.01
2019-03-05T22:21:18.519Z,81.18
2019-03-05T22:26:29.274Z,81.29
2019-03-05T22:31:40.427Z,81.27
2019-03-05T22:36:48.426Z,81.36
2019-03-05T22:41:58.284Z,81.35
2019-03-05T22:47:11.848Z,81.26
2019-03-05T22:52:21.190Z,81.67
2019-03-05T22:57:34.116Z,81.61
2019-03-05T23:02:43.749Z,81.50
2019-03-05T23:07:53.635Z,81.59
2019-03-05T23:13:04.454Z,81.54
2019-03-05T23:18:11.974Z,81.33
2019-03-05T23:23:21.872Z,81.56
2019-03-05T23:28:30.314Z,81.61
2019-03-05T23:33:40.146Z,81.70
2019-03-05T23:38:49.999Z,82.23
2019-03-05T23:43:57.290Z,81.99
2019-03-05T23:49:10.119Z,82.27
2019-03-05T23:54:18.794Z,82.31
2019-03-05T23:59:30.500Z,83.32
